sensor_id;sensor_type;location;lat;lon;timestamp;P1;durP1;ratioP1;P2;durP2;ratioP2
21258;SDS011;10787;53.364;-1.480;2023-04-26T00:01:53;9.50;;;3.80;;
21258;SDS011;10787;53.364;-1.480;2023-04-26T00:04:37;12.47;;;4.37;;
21258;SDS011;10787;53.364;-1.480;2023-04-26T00:07:22;11.50;;;4.20;;
21258;SDS011;10787;53.364;-1.480;2023-04-26T00:10:11;10.17;;;4.30;;
21258;SDS011;10787;53.364;-1.480;2023-04-26T00:12:55;10.87;;;4.50;;
21258;SDS011;10787;53.364;-1.480;2023-04-26T00:15:39;13.67;;;4.00;;
21258;SDS011;10787;53.364;-1.480;2023-04-26T00:18:23;9.00;;;4.27;;
21258;SDS011;10787;53.364;-1.480;2023-04-26T00:21:07;9.00;;;4.33;;
21258;SDS011;10787;53.364;-1.480;2023-04-26T00:23:52;8.00;;;4.07;;
21258;SDS011;10787;53.364;-1.480;2023-04-26T00:26:36;8.67;;;4.10;;
21258;SDS011;10787;53.364;-1.480;2023-04-26T00:29:21;9.67;;;4.37;;
21258;SDS011;10787;53.364;-1.480;2023-04-26T00:32:05;8.97;;;4.50;;
21258;SDS011;10787;53.364;-1.480;2023-04-26T00:34:49;12.67;;;4.50;;
21258;SDS011;10787;53.364;-1.480;2023-04-26T00:37:33;8.13;;;4.10;;
21258;SDS011;10787;53.364;-1.480;2023-04-26T00:40:18;10.57;;;4.50;;
21258;SDS011;10787;53.364;-1.480;2023-04-26T00:43:04;9.03;;;4.13;;
21258;SDS011;10787;53.364;-1.480;2023-04-26T00:45:49;11.47;;;4.13;;
21258;SDS011;10787;53.364;-1.480;2023-04-26T00:48:37;9.83;;;4.23;;
21258;SDS011;10787;53.364;-1.480;2023-04-26T00:51:22;11.30;;;4.50;;
21258;SDS011;10787;53.364;-1.480;2023-04-26T00:54:06;13.60;;;4.70;;
21258;SDS011;10787;53.364;-1.480;2023-04-26T00:56:52;8.53;;;3.93;;
21258;SDS011;10787;53.364;-1.480;2023-04-26T00:59:37;9.17;;;4.27;;
21258;SDS011;10787;53.364;-1.480;2023-04-26T01:02:21;13.20;;;4.57;;
21258;SDS011;10787;53.364;-1.480;2023-04-26T01:05:05;10.77;;;4.50;;
21258;SDS011;10787;53.364;-1.480;2023-04-26T01:07:50;12.43;;;4.30;;
21258;SDS011;10787;53.364;-1.480;2023-04-26T01:10:34;10.20;;;4.40;;
21258;SDS011;10787;53.364;-1.480;2023-04-26T01:13:19;12.20;;;4.53;;
21258;SDS011;10787;53.364;-1.480;2023-04-26T01:16:04;10.50;;;4.53;;
21258;SDS011;10787;53.364;-1.480;2023-04-26T01:18:50;12.30;;;4.40;;
21258;SDS011;10787;53.364;-1.480;2023-04-26T01:21:35;9.83;;;4.97;;
21258;SDS011;10787;53.364;-1.480;2023-04-26T01:24:20;9.63;;;4.60;;
21258;SDS011;10787;53.364;-1.480;2023-04-26T01:27:04;12.87;;;4.37;;
21258;SDS011;10787;53.364;-1.480;2023-04-26T01:29:49;9.67;;;4.30;;
21258;SDS011;10787;53.364;-1.480;2023-04-26T01:32:33;9.53;;;4.07;;
21258;SDS011;10787;53.364;-1.480;2023-04-26T01:35:18;9.40;;;4.60;;
21258;SDS011;10787;53.364;-1.480;2023-04-26T01:38:02;10.77;;;4.27;;
21258;SDS011;10787;53.364;-1.480;2023-04-26T01:40:46;10.33;;;4.30;;
21258;SDS011;10787;53.364;-1.480;2023-04-26T01:43:31;13.70;;;4.47;;
21258;SDS011;10787;53.364;-1.480;2023-04-26T01:46:16;12.00;;;4.57;;
21258;SDS011;10787;53.364;-1.480;2023-04-26T01:48:59;10.53;;;4.87;;
21258;SDS011;10787;53.364;-1.480;2023-04-26T01:51:44;9.27;;;4.50;;
21258;SDS011;10787;53.364;-1.480;2023-04-26T01:54:28;11.47;;;4.50;;
21258;SDS011;10787;53.364;-1.480;2023-04-26T01:57:13;10.27;;;4.30;;
21258;SDS011;10787;53.364;-1.480;2023-04-26T01:59:57;12.07;;;4.90;;
21258;SDS011;10787;53.364;-1.480;2023-04-26T02:02:42;8.43;;;4.47;;
21258;SDS011;10787;53.364;-1.480;2023-04-26T02:05:26;10.87;;;4.77;;
21258;SDS011;10787;53.364;-1.480;2023-04-26T02:08:10;13.10;;;5.10;;
21258;SDS011;10787;53.364;-1.480;2023-04-26T02:10:56;10.43;;;4.97;;
21258;SDS011;10787;53.364;-1.480;2023-04-26T02:13:41;12.50;;;4.93;;
21258;SDS011;10787;53.364;-1.480;2023-04-26T02:16:25;16.67;;;5.40;;
21258;SDS011;10787;53.364;-1.480;2023-04-26T02:19:09;12.13;;;5.23;;
21258;SDS011;10787;53.364;-1.480;2023-04-26T02:21:54;12.17;;;5.20;;
21258;SDS011;10787;53.364;-1.480;2023-04-26T02:24:42;14.63;;;5.77;;
21258;SDS011;10787;53.364;-1.480;2023-04-26T02:27:27;14.83;;;5.43;;
21258;SDS011;10787;53.364;-1.480;2023-04-26T02:30:11;11.47;;;5.00;;
21258;SDS011;10787;53.364;-1.480;2023-04-26T02:32:56;11.90;;;5.07;;
21258;SDS011;10787;53.364;-1.480;2023-04-26T02:35:41;17.03;;;5.73;;
21258;SDS011;10787;53.364;-1.480;2023-04-26T02:38:25;9.93;;;5.03;;
21258;SDS011;10787;53.364;-1.480;2023-04-26T02:41:09;11.27;;;5.63;;
21258;SDS011;10787;53.364;-1.480;2023-04-26T02:43:53;11.07;;;5.17;;
21258;SDS011;10787;53.364;-1.480;2023-04-26T02:46:37;11.73;;;5.10;;
21258;SDS011;10787;53.364;-1.480;2023-04-26T02:49:22;10.00;;;4.80;;
21258;SDS011;10787;53.364;-1.480;2023-04-26T02:52:06;9.93;;;5.10;;
21258;SDS011;10787;53.364;-1.480;2023-04-26T02:54:51;12.17;;;5.10;;
21258;SDS011;10787;53.364;-1.480;2023-04-26T02:57:35;10.07;;;5.23;;
21258;SDS011;10787;53.364;-1.480;2023-04-26T03:00:19;13.80;;;4.57;;
21258;SDS011;10787;53.364;-1.480;2023-04-26T03:03:04;11.57;;;4.90;;
21258;SDS011;10787;53.364;-1.480;2023-04-26T03:05:49;13.47;;;4.90;;
21258;SDS011;10787;53.364;-1.480;2023-04-26T03:08:33;12.83;;;4.97;;
21258;SDS011;10787;53.364;-1.480;2023-04-26T03:11:19;12.87;;;5.00;;
21258;SDS011;10787;53.364;-1.480;2023-04-26T03:14:03;10.20;;;5.00;;
21258;SDS011;10787;53.364;-1.480;2023-04-26T03:16:47;13.83;;;5.13;;
21258;SDS011;10787;53.364;-1.480;2023-04-26T03:19:32;9.70;;;5.07;;
21258;SDS011;10787;53.364;-1.480;2023-04-26T03:22:16;8.10;;;4.80;;
21258;SDS011;10787;53.364;-1.480;2023-04-26T03:25:00;8.97;;;4.73;;
21258;SDS011;10787;53.364;-1.480;2023-04-26T03:27:46;12.77;;;5.60;;
21258;SDS011;10787;53.364;-1.480;2023-04-26T03:30:31;13.37;;;5.10;;
21258;SDS011;10787;53.364;-1.480;2023-04-26T03:33:15;11.07;;;5.30;;
21258;SDS011;10787;53.364;-1.480;2023-04-26T03:36:00;9.40;;;4.90;;
21258;SDS011;10787;53.364;-1.480;2023-04-26T03:38:44;9.60;;;4.73;;
21258;SDS011;10787;53.364;-1.480;2023-04-26T03:41:28;11.87;;;5.40;;
21258;SDS011;10787;53.364;-1.480;2023-04-26T03:44:13;10.80;;;5.47;;
21258;SDS011;10787;53.364;-1.480;2023-04-26T03:46:58;11.57;;;5.00;;
21258;SDS011;10787;53.364;-1.480;2023-04-26T03:49:42;14.57;;;5.10;;
21258;SDS011;10787;53.364;-1.480;2023-04-26T03:52:26;10.17;;;5.00;;
21258;SDS011;10787;53.364;-1.480;2023-04-26T03:55:11;10.73;;;5.13;;
21258;SDS011;10787;53.364;-1.480;2023-04-26T03:57:55;10.40;;;5.33;;
21258;SDS011;10787;53.364;-1.480;2023-04-26T04:00:40;13.33;;;5.30;;
21258;SDS011;10787;53.364;-1.480;2023-04-26T04:03:26;12.63;;;5.50;;
21258;SDS011;10787;53.364;-1.480;2023-04-26T04:06:12;10.97;;;5.33;;
21258;SDS011;10787;53.364;-1.480;2023-04-26T04:08:56;12.70;;;5.40;;
21258;SDS011;10787;53.364;-1.480;2023-04-26T04:11:40;10.30;;;5.20;;
21258;SDS011;10787;53.364;-1.480;2023-04-26T04:14:24;10.30;;;5.40;;
21258;SDS011;10787;53.364;-1.480;2023-04-26T04:17:08;11.27;;;5.13;;
21258;SDS011;10787;53.364;-1.480;2023-04-26T04:19:52;14.13;;;5.40;;
21258;SDS011;10787;53.364;-1.480;2023-04-26T04:22:37;13.73;;;5.90;;
21258;SDS011;10787;53.364;-1.480;2023-04-26T04:25:22;11.37;;;5.33;;
21258;SDS011;10787;53.364;-1.480;2023-04-26T04:28:08;11.50;;;5.47;;
21258;SDS011;10787;53.364;-1.480;2023-04-26T04:30:52;10.60;;;5.67;;
21258;SDS011;10787;53.364;-1.480;2023-04-26T04:33:36;14.77;;;5.40;;
21258;SDS011;10787;53.364;-1.480;2023-04-26T04:36:20;11.17;;;5.37;;
21258;SDS011;10787;53.364;-1.480;2023-04-26T04:39:05;13.27;;;5.47;;
21258;SDS011;10787;53.364;-1.480;2023-04-26T04:41:54;10.53;;;5.60;;
21258;SDS011;10787;53.364;-1.480;2023-04-26T04:44:40;12.80;;;5.40;;
21258;SDS011;10787;53.364;-1.480;2023-04-26T04:47:25;13.63;;;5.57;;
21258;SDS011;10787;53.364;-1.480;2023-04-26T04:50:10;12.47;;;5.93;;
21258;SDS011;10787;53.364;-1.480;2023-04-26T04:52:54;9.90;;;5.37;;
21258;SDS011;10787;53.364;-1.480;2023-04-26T04:55:38;14.50;;;5.60;;
21258;SDS011;10787;53.364;-1.480;2023-04-26T04:58:23;14.93;;;5.87;;
21258;SDS011;10787;53.364;-1.480;2023-04-26T05:01:07;14.33;;;5.83;;
21258;SDS011;10787;53.364;-1.480;2023-04-26T05:03:51;15.00;;;6.40;;
21258;SDS011;10787;53.364;-1.480;2023-04-26T05:06:35;15.37;;;6.73;;
21258;SDS011;10787;53.364;-1.480;2023-04-26T05:09:19;14.60;;;6.50;;
21258;SDS011;10787;53.364;-1.480;2023-04-26T05:12:04;15.63;;;6.33;;
21258;SDS011;10787;53.364;-1.480;2023-04-26T05:14:49;14.80;;;6.27;;
21258;SDS011;10787;53.364;-1.480;2023-04-26T05:17:33;14.13;;;6.50;;
21258;SDS011;10787;53.364;-1.480;2023-04-26T05:20:17;16.03;;;6.23;;
21258;SDS011;10787;53.364;-1.480;2023-04-26T05:23:01;14.93;;;6.40;;
21258;SDS011;10787;53.364;-1.480;2023-04-26T05:25:46;15.80;;;6.47;;
21258;SDS011;10787;53.364;-1.480;2023-04-26T05:28:29;16.23;;;6.80;;
21258;SDS011;10787;53.364;-1.480;2023-04-26T05:31:14;17.87;;;7.03;;
21258;SDS011;10787;53.364;-1.480;2023-04-26T05:33:59;15.00;;;6.13;;
21258;SDS011;10787;53.364;-1.480;2023-04-26T05:36:43;19.60;;;6.27;;
21258;SDS011;10787;53.364;-1.480;2023-04-26T05:39:27;14.33;;;6.40;;
21258;SDS011;10787;53.364;-1.480;2023-04-26T05:42:12;12.07;;;6.27;;
21258;SDS011;10787;53.364;-1.480;2023-04-26T05:44:57;17.97;;;6.73;;
21258;SDS011;10787;53.364;-1.480;2023-04-26T05:47:42;15.30;;;6.47;;
21258;SDS011;10787;53.364;-1.480;2023-04-26T05:50:26;12.53;;;6.00;;
21258;SDS011;10787;53.364;-1.480;2023-04-26T05:53:11;12.40;;;5.90;;
21258;SDS011;10787;53.364;-1.480;2023-04-26T05:55:55;13.27;;;6.27;;
21258;SDS011;10787;53.364;-1.480;2023-04-26T05:58:39;12.17;;;5.87;;
21258;SDS011;10787;53.364;-1.480;2023-04-26T06:01:24;16.87;;;6.77;;
21258;SDS011;10787;53.364;-1.480;2023-04-26T06:04:09;13.20;;;6.33;;
21258;SDS011;10787;53.364;-1.480;2023-04-26T06:06:53;12.80;;;6.40;;
21258;SDS011;10787;53.364;-1.480;2023-04-26T06:09:38;13.63;;;6.63;;
21258;SDS011;10787;53.364;-1.480;2023-04-26T06:12:23;18.23;;;6.73;;
21258;SDS011;10787;53.364;-1.480;2023-04-26T06:15:07;15.67;;;6.83;;
21258;SDS011;10787;53.364;-1.480;2023-04-26T06:17:53;16.87;;;7.00;;
21258;SDS011;10787;53.364;-1.480;2023-04-26T06:20:37;15.67;;;6.50;;
21258;SDS011;10787;53.364;-1.480;2023-04-26T06:23:21;12.00;;;6.60;;
21258;SDS011;10787;53.364;-1.480;2023-04-26T06:26:05;14.13;;;7.20;;
21258;SDS011;10787;53.364;-1.480;2023-04-26T06:28:49;15.37;;;7.23;;
21258;SDS011;10787;53.364;-1.480;2023-04-26T06:31:34;16.70;;;7.60;;
21258;SDS011;10787;53.364;-1.480;2023-04-26T06:34:18;17.00;;;7.70;;
21258;SDS011;10787;53.364;-1.480;2023-04-26T06:37:05;16.40;;;7.37;;
21258;SDS011;10787;53.364;-1.480;2023-04-26T06:39:53;13.57;;;7.13;;
21258;SDS011;10787;53.364;-1.480;2023-04-26T06:42:37;13.80;;;7.50;;
21258;SDS011;10787;53.364;-1.480;2023-04-26T06:45:21;20.13;;;7.80;;
21258;SDS011;10787;53.364;-1.480;2023-04-26T06:48:06;19.67;;;7.93;;
21258;SDS011;10787;53.364;-1.480;2023-04-26T06:50:51;17.10;;;7.87;;
21258;SDS011;10787;53.364;-1.480;2023-04-26T06:53:35;19.70;;;7.83;;
21258;SDS011;10787;53.364;-1.480;2023-04-26T06:56:20;15.80;;;7.73;;
21258;SDS011;10787;53.364;-1.480;2023-04-26T06:59:05;18.10;;;8.57;;
21258;SDS011;10787;53.364;-1.480;2023-04-26T07:01:51;16.83;;;8.17;;
21258;SDS011;10787;53.364;-1.480;2023-04-26T07:04:35;18.07;;;7.80;;
21258;SDS011;10787;53.364;-1.480;2023-04-26T07:07:20;18.33;;;8.17;;
21258;SDS011;10787;53.364;-1.480;2023-04-26T07:10:05;16.40;;;7.73;;
21258;SDS011;10787;53.364;-1.480;2023-04-26T07:12:51;14.80;;;8.23;;
21258;SDS011;10787;53.364;-1.480;2023-04-26T07:15:35;15.30;;;8.20;;
21258;SDS011;10787;53.364;-1.480;2023-04-26T07:18:20;12.23;;;7.90;;
21258;SDS011;10787;53.364;-1.480;2023-04-26T07:21:05;15.40;;;8.13;;
21258;SDS011;10787;53.364;-1.480;2023-04-26T07:23:52;16.50;;;8.57;;
21258;SDS011;10787;53.364;-1.480;2023-04-26T07:26:39;18.23;;;9.07;;
21258;SDS011;10787;53.364;-1.480;2023-04-26T07:29:24;19.67;;;9.20;;
21258;SDS011;10787;53.364;-1.480;2023-04-26T07:32:08;18.47;;;8.87;;
21258;SDS011;10787;53.364;-1.480;2023-04-26T07:34:53;18.23;;;9.00;;
21258;SDS011;10787;53.364;-1.480;2023-04-26T07:37:38;20.43;;;8.73;;
21258;SDS011;10787;53.364;-1.480;2023-04-26T07:40:22;19.73;;;9.13;;
21258;SDS011;10787;53.364;-1.480;2023-04-26T07:43:08;19.10;;;8.80;;
21258;SDS011;10787;53.364;-1.480;2023-04-26T07:45:53;16.97;;;9.30;;
21258;SDS011;10787;53.364;-1.480;2023-04-26T07:48:37;23.57;;;9.13;;
21258;SDS011;10787;53.364;-1.480;2023-04-26T07:51:21;18.90;;;8.87;;
21258;SDS011;10787;53.364;-1.480;2023-04-26T07:54:05;18.37;;;8.70;;
21258;SDS011;10787;53.364;-1.480;2023-04-26T07:56:49;20.13;;;9.00;;
21258;SDS011;10787;53.364;-1.480;2023-04-26T07:59:34;18.33;;;9.27;;
21258;SDS011;10787;53.364;-1.480;2023-04-26T08:02:18;21.43;;;9.23;;
21258;SDS011;10787;53.364;-1.480;2023-04-26T08:05:03;18.07;;;9.07;;
21258;SDS011;10787;53.364;-1.480;2023-04-26T08:07:48;11.43;;;7.37;;
21258;SDS011;10787;53.364;-1.480;2023-04-26T08:10:32;12.97;;;7.40;;
21258;SDS011;10787;53.364;-1.480;2023-04-26T08:13:16;10.47;;;6.77;;
21258;SDS011;10787;53.364;-1.480;2023-04-26T08:16:00;13.33;;;6.93;;
21258;SDS011;10787;53.364;-1.480;2023-04-26T08:18:45;14.10;;;7.17;;
21258;SDS011;10787;53.364;-1.480;2023-04-26T08:21:30;15.23;;;6.70;;
21258;SDS011;10787;53.364;-1.480;2023-04-26T08:24:15;12.43;;;6.60;;
21258;SDS011;10787;53.364;-1.480;2023-04-26T08:38:20;14.23;;;6.87;;
21258;SDS011;10787;53.364;-1.480;2023-04-26T08:41:05;13.90;;;6.30;;
21258;SDS011;10787;53.364;-1.480;2023-04-26T08:43:57;13.50;;;5.80;;
21258;SDS011;10787;53.364;-1.480;2023-04-26T08:49:54;11.93;;;6.00;;
21258;SDS011;10787;53.364;-1.480;2023-04-26T08:52:46;12.80;;;6.03;;
21258;SDS011;10787;53.364;-1.480;2023-04-26T08:55:33;8.57;;;4.67;;
21258;SDS011;10787;53.364;-1.480;2023-04-26T08:58:19;10.37;;;4.90;;
21258;SDS011;10787;53.364;-1.480;2023-04-26T09:01:04;8.27;;;4.50;;
21258;SDS011;10787;53.364;-1.480;2023-04-26T09:03:49;9.57;;;4.60;;
21258;SDS011;10787;53.364;-1.480;2023-04-26T09:06:34;9.03;;;4.73;;
21258;SDS011;10787;53.364;-1.480;2023-04-26T09:09:19;8.83;;;4.40;;
21258;SDS011;10787;53.364;-1.480;2023-04-26T09:12:05;9.10;;;4.73;;
21258;SDS011;10787;53.364;-1.480;2023-04-26T09:14:50;9.40;;;4.93;;
21258;SDS011;10787;53.364;-1.480;2023-04-26T09:17:36;10.60;;;4.93;;
21258;SDS011;10787;53.364;-1.480;2023-04-26T09:20:39;10.90;;;4.80;;
21258;SDS011;10787;53.364;-1.480;2023-04-26T09:23:23;8.90;;;4.53;;
21258;SDS011;10787;53.364;-1.480;2023-04-26T09:26:17;10.87;;;4.93;;
21258;SDS011;10787;53.364;-1.480;2023-04-26T09:29:13;10.40;;;4.97;;
21258;SDS011;10787;53.364;-1.480;2023-04-26T09:31:58;8.93;;;4.80;;
21258;SDS011;10787;53.364;-1.480;2023-04-26T09:34:44;10.50;;;5.13;;
21258;SDS011;10787;53.364;-1.480;2023-04-26T09:37:50;11.50;;;5.70;;
21258;SDS011;10787;53.364;-1.480;2023-04-26T09:40:48;9.70;;;5.73;;
21258;SDS011;10787;53.364;-1.480;2023-04-26T09:43:36;11.67;;;5.37;;
21258;SDS011;10787;53.364;-1.480;2023-04-26T09:46:21;9.17;;;5.33;;
21258;SDS011;10787;53.364;-1.480;2023-04-26T09:49:06;9.10;;;5.47;;
21258;SDS011;10787;53.364;-1.480;2023-04-26T09:52:03;11.43;;;5.40;;
21258;SDS011;10787;53.364;-1.480;2023-04-26T09:54:50;10.87;;;5.33;;
21258;SDS011;10787;53.364;-1.480;2023-04-26T09:57:41;12.40;;;6.03;;
21258;SDS011;10787;53.364;-1.480;2023-04-26T10:00:29;11.27;;;5.97;;
21258;SDS011;10787;53.364;-1.480;2023-04-26T10:03:14;10.43;;;6.00;;
21258;SDS011;10787;53.364;-1.480;2023-04-26T10:05:59;10.70;;;6.07;;
21258;SDS011;10787;53.364;-1.480;2023-04-26T10:08:44;10.07;;;5.80;;
21258;SDS011;10787;53.364;-1.480;2023-04-26T10:11:34;11.00;;;6.17;;
21258;SDS011;10787;53.364;-1.480;2023-04-26T10:14:21;9.48;;;5.88;;
21258;SDS011;10787;53.364;-1.480;2023-04-26T10:17:07;10.23;;;5.50;;
21258;SDS011;10787;53.364;-1.480;2023-04-26T10:19:52;8.88;;;5.25;;
21258;SDS011;10787;53.364;-1.480;2023-04-26T10:22:49;11.13;;;5.53;;
21258;SDS011;10787;53.364;-1.480;2023-04-26T10:25:36;7.13;;;4.80;;
21258;SDS011;10787;53.364;-1.480;2023-04-26T10:31:55;11.10;;;5.40;;
21258;SDS011;10787;53.364;-1.480;2023-04-26T10:34:44;10.95;;;5.40;;
21258;SDS011;10787;53.364;-1.480;2023-04-26T10:40:46;9.52;;;5.30;;
21258;SDS011;10787;53.364;-1.480;2023-04-26T10:43:35;13.38;;;5.60;;
21258;SDS011;10787;53.364;-1.480;2023-04-26T10:46:32;24.92;;;6.20;;
21258;SDS011;10787;53.364;-1.480;2023-04-26T10:49:21;17.38;;;6.15;;
21258;SDS011;10787;53.364;-1.480;2023-04-26T10:52:28;13.45;;;6.03;;
21258;SDS011;10787;53.364;-1.480;2023-04-26T10:55:33;8.40;;;5.38;;
21258;SDS011;10787;53.364;-1.480;2023-04-26T11:01:16;11.15;;;5.55;;
21258;SDS011;10787;53.364;-1.480;2023-04-26T11:04:09;12.15;;;5.43;;
21258;SDS011;10787;53.364;-1.480;2023-04-26T11:06:54;13.63;;;5.65;;
21258;SDS011;10787;53.364;-1.480;2023-04-26T11:09:47;12.38;;;5.38;;
21258;SDS011;10787;53.364;-1.480;2023-04-26T11:12:32;11.57;;;5.45;;
21258;SDS011;10787;53.364;-1.480;2023-04-26T11:15:16;15.23;;;5.90;;
21258;SDS011;10787;53.364;-1.480;2023-04-26T11:18:01;13.35;;;5.50;;
21258;SDS011;10787;53.364;-1.480;2023-04-26T11:20:47;9.63;;;5.45;;
21258;SDS011;10787;53.364;-1.480;2023-04-26T11:23:35;15.60;;;6.00;;
21258;SDS011;10787;53.364;-1.480;2023-04-26T11:26:19;25.40;;;6.38;;
21258;SDS011;10787;53.364;-1.480;2023-04-26T11:29:17;12.70;;;5.40;;
21258;SDS011;10787;53.364;-1.480;2023-04-26T11:32:02;10.43;;;5.13;;
21258;SDS011;10787;53.364;-1.480;2023-04-26T11:34:49;10.40;;;5.10;;
21258;SDS011;10787;53.364;-1.480;2023-04-26T11:37:35;15.27;;;5.60;;
21258;SDS011;10787;53.364;-1.480;2023-04-26T11:40:19;14.57;;;5.90;;
21258;SDS011;10787;53.364;-1.480;2023-04-26T11:43:05;8.63;;;5.67;;
21258;SDS011;10787;53.364;-1.480;2023-04-26T11:45:51;9.80;;;5.67;;
21258;SDS011;10787;53.364;-1.480;2023-04-26T11:48:43;10.70;;;6.30;;
21258;SDS011;10787;53.364;-1.480;2023-04-26T11:51:30;12.23;;;6.50;;
21258;SDS011;10787;53.364;-1.480;2023-04-26T11:54:28;11.50;;;7.03;;
21258;SDS011;10787;53.364;-1.480;2023-04-26T11:57:14;15.90;;;6.40;;
21258;SDS011;10787;53.364;-1.480;2023-04-26T12:00:09;13.13;;;6.23;;
21258;SDS011;10787;53.364;-1.480;2023-04-26T12:03:03;13.30;;;6.10;;
21258;SDS011;10787;53.364;-1.480;2023-04-26T12:05:55;10.70;;;5.70;;
21258;SDS011;10787;53.364;-1.480;2023-04-26T12:08:39;11.40;;;5.73;;
21258;SDS011;10787;53.364;-1.480;2023-04-26T12:11:24;14.13;;;5.93;;
21258;SDS011;10787;53.364;-1.480;2023-04-26T12:14:09;12.93;;;6.00;;
21258;SDS011;10787;53.364;-1.480;2023-04-26T12:16:54;16.07;;;6.30;;
21258;SDS011;10787;53.364;-1.480;2023-04-26T12:19:39;10.03;;;5.93;;
21258;SDS011;10787;53.364;-1.480;2023-04-26T12:22:24;11.67;;;5.70;;
21258;SDS011;10787;53.364;-1.480;2023-04-26T12:25:08;10.03;;;6.00;;
21258;SDS011;10787;53.364;-1.480;2023-04-26T12:27:53;14.57;;;5.93;;
21258;SDS011;10787;53.364;-1.480;2023-04-26T12:30:38;8.87;;;5.70;;
21258;SDS011;10787;53.364;-1.480;2023-04-26T12:33:22;12.63;;;6.13;;
21258;SDS011;10787;53.364;-1.480;2023-04-26T12:36:08;10.90;;;6.57;;
21258;SDS011;10787;53.364;-1.480;2023-04-26T12:38:53;14.60;;;6.57;;
21258;SDS011;10787;53.364;-1.480;2023-04-26T12:41:39;12.83;;;6.30;;
21258;SDS011;10787;53.364;-1.480;2023-04-26T12:44:24;10.50;;;6.10;;
21258;SDS011;10787;53.364;-1.480;2023-04-26T12:47:09;13.50;;;6.30;;
21258;SDS011;10787;53.364;-1.480;2023-04-26T12:49:53;12.43;;;6.33;;
21258;SDS011;10787;53.364;-1.480;2023-04-26T12:52:41;9.37;;;5.73;;
21258;SDS011;10787;53.364;-1.480;2023-04-26T12:55:27;8.93;;;6.00;;
21258;SDS011;10787;53.364;-1.480;2023-04-26T12:58:11;13.17;;;6.00;;
21258;SDS011;10787;53.364;-1.480;2023-04-26T13:00:55;7.77;;;5.80;;
21258;SDS011;10787;53.364;-1.480;2023-04-26T13:03:40;10.10;;;5.72;;
21258;SDS011;10787;53.364;-1.480;2023-04-26T13:06:25;12.47;;;7.30;;
21258;SDS011;10787;53.364;-1.480;2023-04-26T13:09:12;14.00;;;8.75;;
21258;SDS011;10787;53.364;-1.480;2023-04-26T13:11:58;10.85;;;6.00;;
21258;SDS011;10787;53.364;-1.480;2023-04-26T13:14:42;12.70;;;6.30;;
21258;SDS011;10787;53.364;-1.480;2023-04-26T13:17:26;13.87;;;6.23;;
21258;SDS011;10787;53.364;-1.480;2023-04-26T13:20:10;19.33;;;7.00;;
21258;SDS011;10787;53.364;-1.480;2023-04-26T13:22:55;13.18;;;6.25;;
21258;SDS011;10787;53.364;-1.480;2023-04-26T13:25:39;11.68;;;5.50;;
21258;SDS011;10787;53.364;-1.480;2023-04-26T13:28:24;8.93;;;5.63;;
21258;SDS011;10787;53.364;-1.480;2023-04-26T13:31:09;10.13;;;5.78;;
21258;SDS011;10787;53.364;-1.480;2023-04-26T13:33:54;11.35;;;5.80;;
21258;SDS011;10787;53.364;-1.480;2023-04-26T13:36:38;9.02;;;5.28;;
21258;SDS011;10787;53.364;-1.480;2023-04-26T13:39:23;10.77;;;6.32;;
21258;SDS011;10787;53.364;-1.480;2023-04-26T13:42:10;9.02;;;6.07;;
21258;SDS011;10787;53.364;-1.480;2023-04-26T13:44:54;9.70;;;5.40;;
21258;SDS011;10787;53.364;-1.480;2023-04-26T13:47:54;11.05;;;5.40;;
21258;SDS011;10787;53.364;-1.480;2023-04-26T13:50:38;8.85;;;5.47;;
21258;SDS011;10787;53.364;-1.480;2023-04-26T13:53:22;10.25;;;5.72;;
21258;SDS011;10787;53.364;-1.480;2023-04-26T13:56:06;8.80;;;5.78;;
21258;SDS011;10787;53.364;-1.480;2023-04-26T13:58:54;8.65;;;5.63;;
21258;SDS011;10787;53.364;-1.480;2023-04-26T14:01:39;9.88;;;5.85;;
21258;SDS011;10787;53.364;-1.480;2023-04-26T14:04:23;8.93;;;5.97;;
21258;SDS011;10787;53.364;-1.480;2023-04-26T14:07:08;7.72;;;5.50;;
21258;SDS011;10787;53.364;-1.480;2023-04-26T14:09:52;9.25;;;6.15;;
21258;SDS011;10787;53.364;-1.480;2023-04-26T14:12:36;9.18;;;5.97;;
21258;SDS011;10787;53.364;-1.480;2023-04-26T14:15:22;7.63;;;6.00;;
21258;SDS011;10787;53.364;-1.480;2023-04-26T14:18:06;9.65;;;6.07;;
21258;SDS011;10787;53.364;-1.480;2023-04-26T14:20:51;10.10;;;5.70;;
21258;SDS011;10787;53.364;-1.480;2023-04-26T14:23:35;10.63;;;5.97;;
21258;SDS011;10787;53.364;-1.480;2023-04-26T14:26:19;9.93;;;5.90;;
21258;SDS011;10787;53.364;-1.480;2023-04-26T14:29:04;8.07;;;5.38;;
21258;SDS011;10787;53.364;-1.480;2023-04-26T14:31:48;11.40;;;5.60;;
21258;SDS011;10787;53.364;-1.480;2023-04-26T14:34:33;10.60;;;5.57;;
21258;SDS011;10787;53.364;-1.480;2023-04-26T14:37:21;11.75;;;5.65;;
21258;SDS011;10787;53.364;-1.480;2023-04-26T14:40:06;9.18;;;5.43;;
21258;SDS011;10787;53.364;-1.480;2023-04-26T14:42:51;10.90;;;6.30;;
21258;SDS011;10787;53.364;-1.480;2023-04-26T14:45:36;12.40;;;6.25;;
21258;SDS011;10787;53.364;-1.480;2023-04-26T14:48:20;9.73;;;5.63;;
21258;SDS011;10787;53.364;-1.480;2023-04-26T14:51:04;9.80;;;5.55;;
21258;SDS011;10787;53.364;-1.480;2023-04-26T14:53:49;10.35;;;5.60;;
21258;SDS011;10787;53.364;-1.480;2023-04-26T14:56:33;9.25;;;5.80;;
21258;SDS011;10787;53.364;-1.480;2023-04-26T14:59:18;7.90;;;5.70;;
21258;SDS011;10787;53.364;-1.480;2023-04-26T15:02:02;10.25;;;5.70;;
21258;SDS011;10787;53.364;-1.480;2023-04-26T15:04:47;8.40;;;5.88;;
21258;SDS011;10787;53.364;-1.480;2023-04-26T15:07:31;7.00;;;5.07;;
21258;SDS011;10787;53.364;-1.480;2023-04-26T15:10:15;8.75;;;6.10;;
21258;SDS011;10787;53.364;-1.480;2023-04-26T15:13:00;8.50;;;5.47;;
21258;SDS011;10787;53.364;-1.480;2023-04-26T15:15:44;10.98;;;5.38;;
21258;SDS011;10787;53.364;-1.480;2023-04-26T15:18:29;9.73;;;5.47;;
21258;SDS011;10787;53.364;-1.480;2023-04-26T15:21:17;8.77;;;5.00;;
21258;SDS011;10787;53.364;-1.480;2023-04-26T15:24:01;8.32;;;5.20;;
21258;SDS011;10787;53.364;-1.480;2023-04-26T15:26:46;11.02;;;5.32;;
21258;SDS011;10787;53.364;-1.480;2023-04-26T15:29:30;9.90;;;5.35;;
21258;SDS011;10787;53.364;-1.480;2023-04-26T15:32:15;9.85;;;5.20;;
21258;SDS011;10787;53.364;-1.480;2023-04-26T15:35:00;8.00;;;5.32;;
21258;SDS011;10787;53.364;-1.480;2023-04-26T15:37:44;8.48;;;5.20;;
21258;SDS011;10787;53.364;-1.480;2023-04-26T15:40:28;8.60;;;5.57;;
21258;SDS011;10787;53.364;-1.480;2023-04-26T15:43:12;9.20;;;5.53;;
21258;SDS011;10787;53.364;-1.480;2023-04-26T15:45:57;9.20;;;5.38;;
21258;SDS011;10787;53.364;-1.480;2023-04-26T15:48:41;10.13;;;5.45;;
21258;SDS011;10787;53.364;-1.480;2023-04-26T15:51:25;8.85;;;5.38;;
21258;SDS011;10787;53.364;-1.480;2023-04-26T15:54:22;9.32;;;5.40;;
21258;SDS011;10787;53.364;-1.480;2023-04-26T15:57:10;8.25;;;5.47;;
21258;SDS011;10787;53.364;-1.480;2023-04-26T15:59:55;7.20;;;5.15;;
21258;SDS011;10787;53.364;-1.480;2023-04-26T16:02:40;9.25;;;5.57;;
21258;SDS011;10787;53.364;-1.480;2023-04-26T16:05:27;9.68;;;5.70;;
21258;SDS011;10787;53.364;-1.480;2023-04-26T16:08:14;8.52;;;5.82;;
21258;SDS011;10787;53.364;-1.480;2023-04-26T16:10:58;8.57;;;5.53;;
21258;SDS011;10787;53.364;-1.480;2023-04-26T16:13:43;11.60;;;5.30;;
21258;SDS011;10787;53.364;-1.480;2023-04-26T16:16:28;11.95;;;5.90;;
21258;SDS011;10787;53.364;-1.480;2023-04-26T16:19:12;10.60;;;5.70;;
21258;SDS011;10787;53.364;-1.480;2023-04-26T16:21:58;10.10;;;5.63;;
21258;SDS011;10787;53.364;-1.480;2023-04-26T16:24:43;9.70;;;5.63;;
21258;SDS011;10787;53.364;-1.480;2023-04-26T16:27:27;9.88;;;5.70;;
21258;SDS011;10787;53.364;-1.480;2023-04-26T16:30:11;10.88;;;5.60;;
21258;SDS011;10787;53.364;-1.480;2023-04-26T16:32:56;9.80;;;6.03;;
21258;SDS011;10787;53.364;-1.480;2023-04-26T16:35:40;7.68;;;5.65;;
21258;SDS011;10787;53.364;-1.480;2023-04-26T16:38:24;8.30;;;5.55;;